Time;durP1;ratioP1;P1;durP2;ratioP2;P2;SDS_P1;SDS_P2;PMS_P1;PMS_P2;Temp;Humidity;BMP_temperature;BMP_pressure;BME280_temperature;BME280_humidity;BME280_pressure;Samples;Min_cycle;Max_cycle;Signal;HPM_P1;HPM_P2
2022/07/01 00:00:09;;;;;;;0.00;0.00;;;18.70;99.90;;;;;;4996426;28;20030;-92
2022/07/01 00:02:47;;;;;;;0.10;0.10;;;18.80;99.90;;;;;;4998575;28;20021;-91
2022/07/01 00:05:28;;;;;;;1.45;0.80;;;18.70;99.90;;;;;;5016327;28;20050;-91
2022/07/01 00:08:11;;;;;;;1.52;0.68;;;18.60;99.90;;;;;;5015413;28;20049;-90
2022/07/01 00:10:46;;;;;;;2.45;0.65;;;18.70;99.90;;;;;;5016080;28;20045;-91
2022/07/01 00:13:15;;;;;;;0.20;0.20;;;18.70;99.90;;;;;;5000081;28;20031;-91
2022/07/01 00:15:43;;;;;;;1.27;0.75;;;18.60;99.90;;;;;;5015611;28;20039;-91
2022/07/01 00:18:33;;;;;;;0.63;0.38;;;18.50;99.90;;;;;;5015614;28;20034;-92
2022/07/01 00:21:17;;;;;;;0.10;0.10;;;18.60;99.90;;;;;;5015824;28;20018;-92
2022/07/01 00:23:52;;;;;;;2.00;0.10;;;18.80;99.90;;;;;;5016249;28;20081;-92
2022/07/01 00:26:32;;;;;;;0.10;0.10;;;18.70;99.90;;;;;;5013385;28;20037;-92
2022/07/01 00:29:21;;;;;;;0.75;0.47;;;18.70;99.90;;;;;;5014897;28;20041;-91
2022/07/01 00:32:03;;;;;;;0.00;0.00;;;18.80;99.90;;;;;;5020224;28;20030;-92
2022/07/01 00:34:32;;;;;;;0.30;0.30;;;18.80;99.90;;;;;;5002365;28;20034;-91
2022/07/01 00:37:05;;;;;;;0.22;0.22;;;18.90;99.90;;;;;;5002164;28;20034;-91
2022/07/01 00:39:39;;;;;;;0.00;0.00;;;18.70;99.90;;;;;;5017985;28;20041;-91
2022/07/01 00:42:13;;;;;;;0.20;0.20;;;18.80;99.90;;;;;;5003092;28;20037;-92
2022/07/01 00:44:46;;;;;;;0.00;0.00;;;18.80;99.90;;;;;;5017544;28;20027;-91
2022/07/01 00:47:25;;;;;;;0.00;0.00;;;18.60;99.90;;;;;;5017920;28;20031;-90
2022/07/01 00:49:53;;;;;;;0.10;0.10;;;18.70;99.90;;;;;;5017234;28;20018;-92
2022/07/01 00:52:27;;;;;;;0.17;0.17;;;18.70;99.90;;;;;;5018821;28;20118;-91
2022/07/01 00:54:54;;;;;;;0.10;0.10;;;18.80;99.90;;;;;;5018348;23;20624;-76
2022/07/01 00:57:20;;;;;;;0.00;0.00;;;18.80;99.90;;;;;;4993930;28;20458;-77
2022/07/01 00:59:46;;;;;;;0.00;0.00;;;18.80;99.90;;;;;;4994901;28;20057;-77
2022/07/01 01:02:12;;;;;;;0.00;0.00;;;18.90;99.90;;;;;;4977702;28;20081;-77
2022/07/01 01:04:38;;;;;;;0.10;0.10;;;18.80;99.90;;;;;;4995000;28;20437;-75
2022/07/01 01:07:04;;;;;;;0.20;0.20;;;18.70;99.90;;;;;;4994467;28;20038;-74
2022/07/01 01:09:30;;;;;;;0.20;0.20;;;18.80;99.90;;;;;;4995630;28;20030;-74
2022/07/01 01:11:57;;;;;;;0.20;0.20;;;18.70;99.90;;;;;;4994264;28;20077;-74
2022/07/01 01:14:23;;;;;;;0.10;0.10;;;18.60;99.90;;;;;;4993596;28;20022;-74
2022/07/01 01:16:49;;;;;;;0.10;0.10;;;18.50;99.90;;;;;;4993497;28;20023;-74
2022/07/01 01:19:15;;;;;;;0.00;0.00;;;18.60;99.90;;;;;;4993412;28;20387;-74
2022/07/01 01:21:41;;;;;;;0.10;0.10;;;18.70;99.90;;;;;;4994584;28;20105;-74
2022/07/01 01:24:08;;;;;;;0.10;0.10;;;18.70;99.90;;;;;;4994647;28;20478;-74
2022/07/01 01:26:34;;;;;;;0.10;0.10;;;18.60;99.90;;;;;;4993084;28;20505;-74
2022/07/01 01:28:59;;;;;;;0.10;0.10;;;18.60;99.90;;;;;;4994453;28;20023;-74
2022/07/01 01:31:30;;;;;;;0.25;0.20;;;18.50;99.90;;;;;;4993261;28;20451;-76
2022/07/01 01:33:56;;;;;;;0.10;0.10;;;18.30;99.90;;;;;;4994491;28;20022;-74
2022/07/01 01:36:22;;;;;;;0.10;0.10;;;18.20;99.90;;;;;;4994397;28;20144;-76
2022/07/01 01:38:47;;;;;;;0.10;0.10;;;18.20;99.90;;;;;;4994277;28;20022;-76
2022/07/01 01:41:13;;;;;;;0.00;0.00;;;18.30;99.90;;;;;;4993658;28;20120;-76
2022/07/01 01:43:39;;;;;;;0.13;0.13;;;18.30;99.90;;;;;;4994440;28;20512;-74
2022/07/01 01:46:05;;;;;;;0.10;0.10;;;18.20;99.90;;;;;;4994338;28;20023;-74
2022/07/01 01:48:31;;;;;;;0.10;0.10;;;18.10;99.90;;;;;;4994082;28;20030;-74
2022/07/01 01:50:57;;;;;;;0.13;0.13;;;18.00;99.90;;;;;;4992682;28;20089;-74
2022/07/01 01:53:23;;;;;;;0.10;0.10;;;18.00;99.90;;;;;;4992776;28;20029;-74
2022/07/01 01:55:49;;;;;;;0.52;0.40;;;18.00;99.90;;;;;;4993861;28;20034;-74
2022/07/01 01:58:15;;;;;;;0.08;0.08;;;17.80;99.90;;;;;;4993046;28;20030;-74
2022/07/01 02:00:41;;;;;;;0.20;0.20;;;17.70;99.90;;;;;;4992532;28;20027;-74
2022/07/01 02:03:07;;;;;;;0.55;0.38;;;17.70;99.90;;;;;;4993998;28;20109;-76
2022/07/01 02:05:35;;;;;;;0.08;0.08;;;17.60;99.90;;;;;;4993916;28;20034;-77
2022/07/01 02:08:02;;;;;;;0.13;0.13;;;17.60;99.90;;;;;;4993784;28;20025;-77
2022/07/01 02:10:27;;;;;;;0.03;0.03;;;17.70;99.90;;;;;;4993536;28;20506;-75
2022/07/01 02:12:53;;;;;;;0.10;0.10;;;17.70;99.90;;;;;;4992783;28;20061;-74
2022/07/01 02:15:19;;;;;;;0.00;0.00;;;17.90;99.90;;;;;;4992600;28;20113;-74
2022/07/01 02:17:45;;;;;;;0.25;0.25;;;17.90;99.90;;;;;;4993670;28;20033;-74
2022/07/01 02:20:14;;;;;;;0.20;0.20;;;17.90;99.90;;;;;;4993322;28;20105;-74
2022/07/01 02:22:41;;;;;;;0.10;0.10;;;17.90;99.90;;;;;;4993615;28;20038;-74
2022/07/01 02:25:08;;;;;;;0.60;0.20;;;17.90;99.90;;;;;;4993582;28;20418;-76
2022/07/01 02:27:33;;;;;;;0.10;0.10;;;17.90;99.90;;;;;;4992237;28;20026;-77
2022/07/01 02:29:59;;;;;;;0.10;0.10;;;17.80;99.90;;;;;;4991786;28;20029;-77
2022/07/01 02:32:25;;;;;;;0.10;0.10;;;17.80;99.90;;;;;;4993412;28;20022;-74
2022/07/01 02:34:51;;;;;;;0.08;0.08;;;17.70;99.90;;;;;;4993439;28;20314;-76
2022/07/01 02:37:17;;;;;;;0.10;0.10;;;17.70;99.90;;;;;;4992121;28;20034;-77
2022/07/01 02:39:43;;;;;;;0.10;0.10;;;17.70;99.90;;;;;;4991737;28;20080;-74
2022/07/01 02:42:25;;;;;;;0.13;0.13;;;17.70;99.90;;;;;;4975792;28;20057;-74
2022/07/01 02:44:51;;;;;;;0.10;0.10;;;17.60;99.90;;;;;;4993333;28;20030;-77
2022/07/01 02:47:16;;;;;;;0.10;0.10;;;17.70;99.90;;;;;;4991852;28;20038;-77
2022/07/01 02:49:42;;;;;;;3.40;0.40;;;17.70;99.90;;;;;;4992957;28;20026;-77
2022/07/01 02:52:08;;;;;;;0.10;0.10;;;17.70;99.90;;;;;;4992975;28;20035;-77
2022/07/01 02:54:34;;;;;;;0.10;0.10;;;17.70;99.90;;;;;;4990915;28;20031;-74
2022/07/01 02:56:59;;;;;;;0.10;0.10;;;17.70;99.90;;;;;;4991790;28;20023;-74
2022/07/01 02:59:25;;;;;;;0.10;0.10;;;17.90;99.90;;;;;;4992698;28;20034;-75
2022/07/01 03:01:51;;;;;;;0.10;0.10;;;18.00;99.90;;;;;;4992959;28;20030;-76
2022/07/01 03:04:16;;;;;;;0.20;0.20;;;18.10;99.90;;;;;;4992945;28;20426;-77
2022/07/01 03:06:42;;;;;;;0.10;0.10;;;18.20;99.90;;;;;;4991511;28;20037;-77
2022/07/01 03:09:08;;;;;;;0.05;0.05;;;18.10;99.90;;;;;;4992590;28;20026;-74
2022/07/01 03:11:34;;;;;;;0.05;0.05;;;18.10;99.90;;;;;;4992772;28;20479;-76
2022/07/01 03:13:59;;;;;;;0.00;0.00;;;18.00;99.90;;;;;;4991532;28;20030;-76
2022/07/01 03:16:25;;;;;;;0.10;0.10;;;18.00;99.90;;;;;;4992794;28;20022;-74
2022/07/01 03:18:51;;;;;;;0.10;0.10;;;17.90;99.90;;;;;;4992425;28;20023;-76
2022/07/01 03:21:16;;;;;;;0.20;0.20;;;17.90;99.90;;;;;;4992560;28;20601;-76
2022/07/01 03:23:42;;;;;;;0.10;0.10;;;17.90;99.90;;;;;;4992626;28;20037;-76
2022/07/01 03:26:08;;;;;;;0.25;0.10;;;17.80;99.90;;;;;;4992986;28;20540;-76
2022/07/01 03:28:34;;;;;;;0.15;0.15;;;17.80;99.90;;;;;;4975075;28;20045;-77
2022/07/01 03:31:00;;;;;;;0.00;0.00;;;17.80;99.90;;;;;;4984690;23;20051;-73
2022/07/01 03:33:27;;;;;;;0.08;0.08;;;17.90;99.90;;;;;;4972463;28;20019;-72
2022/07/01 03:35:52;;;;;;;0.10;0.10;;;18.00;99.90;;;;;;4972033;28;20019;-73
2022/07/01 03:38:18;;;;;;;0.00;0.00;;;18.00;99.90;;;;;;4972943;28;20041;-73
2022/07/01 03:40:44;;;;;;;0.00;0.00;;;18.10;99.90;;;;;;4971787;28;20082;-74
2022/07/01 03:43:10;;;;;;;4.05;0.20;;;18.20;99.90;;;;;;4973030;28;20041;-73
2022/07/01 03:45:36;;;;;;;0.10;0.10;;;18.20;99.90;;;;;;4971823;28;20063;-73
2022/07/01 03:48:02;;;;;;;0.10;0.10;;;18.20;99.90;;;;;;4972885;28;20059;-73
2022/07/01 03:50:28;;;;;;;0.03;0.03;;;18.30;99.90;;;;;;4971680;28;20074;-73
2022/07/01 03:55:38;;;;;;;0.00;0.00;;;18.30;99.90;;;;;;4972885;28;20398;-73
2022/07/01 03:58:05;;;;;;;0.10;0.10;;;18.30;99.90;;;;;;4972947;28;20023;-73
2022/07/01 04:00:34;;;;;;;0.00;0.00;;;18.50;99.90;;;;;;4972758;28;20027;-73
2022/07/01 04:02:59;;;;;;;0.10;0.10;;;18.70;99.90;;;;;;4972912;28;20019;-73
2022/07/01 04:05:25;;;;;;;0.10;0.10;;;18.80;99.90;;;;;;4975146;28;20027;-73
2022/07/01 04:07:51;;;;;;;0.10;0.10;;;18.90;99.90;;;;;;4975260;28;20027;-73
2022/07/01 04:10:17;;;;;;;0.05;0.05;;;19.00;99.90;;;;;;4976291;28;20262;-73
2022/07/01 04:12:43;;;;;;;0.00;0.00;;;19.10;99.90;;;;;;4976646;28;20030;-73
2022/07/01 04:15:10;;;;;;;0.00;0.00;;;19.20;99.90;;;;;;4975408;28;20479;-73
2022/07/01 04:17:35;;;;;;;0.00;0.00;;;19.10;99.90;;;;;;4976560;28;20124;-72
2022/07/01 04:20:02;;;;;;;0.10;0.10;;;19.00;99.90;;;;;;4976269;28;20027;-73
2022/07/01 04:22:33;;;;;;;0.10;0.10;;;19.00;99.90;;;;;;4976394;28;20551;-74
2022/07/01 04:25:00;;;;;;;;;;;19.00;99.90;;;;;;4975642;28;20510;-73
2022/07/01 04:27:26;;;;;;;0.10;0.10;;;19.20;99.90;;;;;;4976166;28;20052;-73
2022/07/01 04:29:52;;;;;;;0.10;0.10;;;19.40;99.90;;;;;;4976097;28;20105;-73
2022/07/01 04:32:17;;;;;;;0.00;0.00;;;19.40;99.90;;;;;;4976348;28;20055;-73
2022/07/01 04:34:43;;;;;;;0.00;0.00;;;19.40;99.90;;;;;;4976202;28;20486;-73
2022/07/01 04:37:09;;;;;;;0.10;0.10;;;19.40;99.90;;;;;;4976183;28;20071;-73
2022/07/01 04:39:35;;;;;;;0.10;0.10;;;19.40;99.90;;;;;;4975889;28;20027;-74
2022/07/01 04:42:00;;;;;;;0.00;0.00;;;19.40;99.90;;;;;;4976266;28;20105;-73
2022/07/01 04:44:32;;;;;;;0.00;0.00;;;19.40;99.90;;;;;;4974771;28;20106;-73
2022/07/01 04:46:58;;;;;;;0.10;0.10;;;19.40;99.90;;;;;;4975828;28;20056;-73
2022/07/01 04:49:24;;;;;;;0.00;0.00;;;19.60;99.90;;;;;;4975913;28;20027;-73
2022/07/01 04:51:50;;;;;;;0.08;0.08;;;19.40;99.90;;;;;;4975996;28;20078;-73
2022/07/01 04:54:17;;;;;;;0.10;0.10;;;19.40;99.90;;;;;;4974763;28;20070;-73
2022/07/01 04:56:43;;;;;;;0.00;0.00;;;19.50;99.90;;;;;;4976005;28;20019;-73
2022/07/01 04:59:08;;;;;;;0.03;0.03;;;19.60;99.90;;;;;;4975818;28;20077;-73
2022/07/01 05:01:34;;;;;;;0.00;0.00;;;19.70;99.90;;;;;;4974773;28;20114;-73
2022/07/01 05:04:00;;;;;;;0.20;0.20;;;19.80;99.90;;;;;;4975649;28;20030;-73
2022/07/01 05:06:26;;;;;;;0.03;0.03;;;19.90;99.90;;;;;;4974435;28;20081;-73
2022/07/01 05:08:52;;;;;;;0.00;0.00;;;19.80;99.90;;;;;;4975696;28;20054;-73
2022/07/01 05:11:17;;;;;;;0.00;0.00;;;20.00;99.90;;;;;;4975754;28;20034;-73
2022/07/01 05:13:44;;;;;;;0.10;0.10;;;20.00;99.90;;;;;;4975592;28;20031;-73
2022/07/01 05:16:10;;;;;;;0.10;0.10;;;19.90;99.90;;;;;;4974991;28;20031;-73
2022/07/01 05:24:05;;;;;;;0.10;0.10;;;19.90;99.90;;;;;;4975506;28;20030;-74
2022/07/01 05:26:31;;;;;;;0.00;0.00;;;19.90;99.90;;;;;;4975567;28;20661;-74
2022/07/01 05:28:57;;;;;;;0.20;0.20;;;20.10;99.90;;;;;;4975194;28;20101;-73
2022/07/01 05:31:23;;;;;;;0.10;0.10;;;20.10;99.90;;;;;;4975183;28;20042;-73
2022/07/01 05:33:49;;;;;;;0.10;0.10;;;20.20;99.90;;;;;;4975509;28;20098;-74
2022/07/01 05:36:15;;;;;;;0.00;0.00;;;20.20;99.90;;;;;;4975177;28;20023;-74
2022/07/01 05:38:41;;;;;;;0.10;0.10;;;20.10;99.90;;;;;;4972810;28;20051;-74
2022/07/01 05:41:07;;;;;;;0.00;0.00;;;20.10;99.90;;;;;;4962388;28;20094;-72
2022/07/01 05:43:33;;;;;;;0.00;0.00;;;20.10;99.90;;;;;;4960540;28;20094;-72
2022/07/01 05:45:59;;;;;;;0.10;0.10;;;20.10;99.90;;;;;;4955696;28;20501;-73
2022/07/01 05:48:25;;;;;;;0.15;0.15;;;20.00;99.90;;;;;;4969367;28;20485;-72
2022/07/01 05:50:51;;;;;;;0.10;0.10;;;20.10;99.90;;;;;;4954790;28;20146;-72
2022/07/01 05:53:18;;;;;;;0.00;0.00;;;20.10;99.90;;;;;;4954311;29;20525;-73
2022/07/01 05:55:44;;;;;;;0.10;0.10;;;20.10;99.90;;;;;;4963890;28;20019;-73
2022/07/01 05:58:13;;;;;;;0.00;0.00;;;20.10;99.90;;;;;;4973618;28;20027;-73
2022/07/01 06:00:42;;;;;;;0.10;0.10;;;20.10;99.90;;;;;;4974220;28;20031;-72
2022/07/01 06:03:13;;;;;;;0.10;0.10;;;20.10;99.90;;;;;;4974596;28;20058;-72
2022/07/01 06:05:40;;;;;;;0.10;0.10;;;20.10;99.90;;;;;;4973127;28;20062;-72
2022/07/01 06:08:06;;;;;;;0.10;0.10;;;20.20;99.90;;;;;;4974311;28;20029;-72
2022/07/01 06:10:33;;;;;;;0.10;0.10;;;20.30;99.90;;;;;;4974141;28;20491;-72
2022/07/01 06:12:59;;;;;;;0.10;0.10;;;20.30;99.90;;;;;;4974364;28;20062;-72
2022/07/01 06:15:25;;;;;;;0.00;0.00;;;20.30;99.90;;;;;;4974322;28;20054;-72
2022/07/01 06:17:51;;;;;;;0.00;0.00;;;20.40;99.90;;;;;;4973387;28;20026;-73
2022/07/01 06:20:17;;;;;;;0.10;0.10;;;20.40;99.90;;;;;;4972728;28;20109;-73
2022/07/01 06:22:43;;;;;;;0.00;0.00;;;20.40;99.90;;;;;;4974182;28;20107;-72
2022/07/01 06:25:09;;;;;;;0.10;0.10;;;20.40;99.90;;;;;;4974150;28;20023;-73
2022/07/01 06:27:39;;;;;;;0.10;0.10;;;20.30;99.90;;;;;;4973813;28;20395;-73
2022/07/01 06:30:06;;;;;;;0.10;0.10;;;20.30;99.90;;;;;;4973685;28;20057;-71
2022/07/01 06:32:31;;;;;;;0.10;0.10;;;20.30;99.90;;;;;;4969661;28;20078;-72
2022/07/01 06:34:57;;;;;;;0.03;0.03;;;20.30;99.90;;;;;;4959329;28;20026;-72
2022/07/01 06:37:23;;;;;;;0.08;0.08;;;20.50;99.90;;;;;;4973732;28;20371;-73
2022/07/01 06:39:48;;;;;;;0.10;0.10;;;20.50;99.90;;;;;;4964193;28;20027;-72
2022/07/01 06:42:14;;;;;;;0.30;0.30;;;20.60;99.90;;;;;;4958464;28;20046;-72
2022/07/01 06:44:40;;;;;;;0.10;0.10;;;20.60;99.90;;;;;;4973101;28;20033;-72
2022/07/01 06:47:06;;;;;;;0.00;0.00;;;20.50;99.90;;;;;;4954759;28;20492;-72
2022/07/01 06:49:31;;;;;;;1.80;0.75;;;20.50;99.90;;;;;;4973068;28;20497;-72
2022/07/01 06:51:57;;;;;;;0.05;0.05;;;20.60;99.90;;;;;;4970374;28;20400;-73
2022/07/01 06:54:23;;;;;;;0.10;0.10;;;20.60;99.90;;;;;;4973284;28;20027;-73
2022/07/01 06:56:49;;;;;;;0.03;0.03;;;20.50;99.90;;;;;;4973217;28;20026;-73
2022/07/01 06:59:15;;;;;;;0.03;0.03;;;20.50;99.90;;;;;;4973101;28;20037;-76
2022/07/01 07:01:41;;;;;;;6.88;1.85;;;20.50;99.90;;;;;;4973578;28;20034;-76
2022/07/01 07:04:07;;;;;;;0.10;0.10;;;20.40;99.90;;;;;;4987253;28;20033;-76
2022/07/01 07:06:33;;;;;;;0.00;0.00;;;20.50;99.90;;;;;;4973826;28;20027;-76
2022/07/01 07:08:59;;;;;;;0.05;0.05;;;20.50;99.90;;;;;;4973195;28;20023;-77
2022/07/01 07:11:25;;;;;;;0.00;0.00;;;20.50;99.90;;;;;;4973760;28;20023;-76
2022/07/01 07:13:51;;;;;;;0.00;0.00;;;20.40;99.90;;;;;;4969453;28;20020;-77
2022/07/01 07:16:20;;;;;;;0.10;0.10;;;20.40;99.90;;;;;;4954759;28;20034;-76
2022/07/01 07:18:50;;;;;;;0.00;0.00;;;20.40;99.90;;;;;;4954340;28;20031;-77
2022/07/01 07:21:16;;;;;;;0.00;0.00;;;20.50;99.90;;;;;;4954396;28;20027;-77
2022/07/01 07:23:42;;;;;;;0.10;0.10;;;20.30;99.90;;;;;;4954411;28;20106;-77
2022/07/01 07:26:10;;;;;;;0.10;0.10;;;20.30;99.90;;;;;;4954647;28;20027;-77
2022/07/01 07:28:36;;;;;;;0.00;0.00;;;20.20;99.90;;;;;;4953383;28;20043;-77
2022/07/01 07:31:02;;;;;;;0.00;0.00;;;20.30;99.90;;;;;;4952803;29;20031;-77
2022/07/01 07:33:28;;;;;;;0.10;0.10;;;20.20;99.90;;;;;;4953372;29;20027;-77
2022/07/01 07:35:54;;;;;;;0.10;0.10;;;20.40;99.90;;;;;;4953108;28;20609;-77
2022/07/01 07:38:20;;;;;;;0.00;0.00;;;20.50;99.90;;;;;;4967820;28;20039;-77
2022/07/01 07:40:46;;;;;;;0.20;0.20;;;20.60;99.90;;;;;;4960279;28;20398;-76
2022/07/01 07:43:12;;;;;;;0.05;0.05;;;20.60;99.90;;;;;;4977953;28;20459;-76
2022/07/01 07:45:37;;;;;;;0.10;0.10;;;20.60;99.90;;;;;;4977580;28;20022;-77
2022/07/01 07:48:05;;;;;;;0.13;0.13;;;20.60;99.90;;;;;;4968186;28;20506;-77
2022/07/01 07:50:31;;;;;;;0.00;0.00;;;20.90;99.90;;;;;;4968680;28;20445;-77
2022/07/01 07:52:57;;;;;;;0.10;0.10;;;21.20;99.90;;;;;;4983378;28;20498;-76
2022/07/01 07:55:23;;;;;;;0.00;0.00;;;21.40;99.90;;;;;;4978178;28;20034;-77
2022/07/01 07:57:49;;;;;;;0.00;0.00;;;21.50;99.90;;;;;;4961883;28;20035;-76
2022/07/01 08:00:15;;;;;;;0.20;0.20;;;21.80;99.90;;;;;;4976949;28;20038;-78
2022/07/01 08:02:42;;;;;;;0.10;0.10;;;22.00;99.90;;;;;;4984148;28;20031;-78
2022/07/01 08:05:09;;;;;;;0.08;0.08;;;21.70;99.90;;;;;;4960913;28;20484;-76
2022/07/01 08:07:40;;;;;;;0.20;0.20;;;21.60;99.90;;;;;;4942074;29;20098;-76
2022/07/01 08:10:09;;;;;;;0.00;0.00;;;21.10;99.90;;;;;;4960498;29;20027;-78
2022/07/01 08:12:35;;;;;;;0.88;0.55;;;20.90;99.90;;;;;;4963087;28;20468;-78
2022/07/01 08:15:01;;;;;;;0.00;0.00;;;20.90;99.90;;;;;;4961822;28;20019;-78
2022/07/01 08:17:26;;;;;;;0.00;0.00;;;20.90;99.90;;;;;;4979697;28;20030;-77
2022/07/01 08:19:52;;;;;;;0.00;0.00;;;20.90;99.90;;;;;;4980616;28;20439;-77
2022/07/01 08:22:19;;;;;;;0.10;0.10;;;20.80;99.90;;;;;;4981439;28;20035;-77
2022/07/01 08:24:45;;;;;;;0.10;0.10;;;20.80;99.90;;;;;;4980608;28;20031;-78
2022/07/01 08:27:12;;;;;;;0.00;0.00;;;20.70;99.90;;;;;;4951276;29;20042;-78
2022/07/01 08:29:38;;;;;;;0.05;0.05;;;20.70;99.90;;;;;;4953000;28;20039;-78
2022/07/01 08:32:05;;;;;;;0.20;0.20;;;20.60;99.90;;;;;;4961549;29;20038;-77
2022/07/01 08:34:31;;;;;;;0.20;0.20;;;20.60;99.90;;;;;;4962111;28;20026;-78
2022/07/01 08:36:56;;;;;;;0.30;0.20;;;20.40;99.90;;;;;;4961254;29;20031;-78
2022/07/01 08:39:23;;;;;;;0.20;0.20;;;20.30;99.90;;;;;;4959921;28;20027;-77
2022/07/01 08:41:49;;;;;;;0.20;0.20;;;19.70;99.90;;;;;;4960046;29;20110;-78
2022/07/01 08:44:14;;;;;;;0.28;0.28;;;18.40;99.90;;;;;;4964819;28;20070;-77
2022/07/01 08:46:41;;;;;;;0.20;0.20;;;17.40;99.90;;;;;;4978880;28;20127;-78
2022/07/01 08:49:06;;;;;;;0.10;0.10;;;17.10;99.90;;;;;;4978432;28;20027;-77
2022/07/01 08:51:32;;;;;;;0.10;0.10;;;16.90;99.90;;;;;;4960649;28;20117;-77
2022/07/01 08:53:58;;;;;;;0.20;0.20;;;16.80;99.90;;;;;;4977799;28;20027;-78
2022/07/01 08:56:42;;;;;;;0.17;0.17;;;16.70;99.90;;;;;;4979083;28;20027;-77
2022/07/01 08:59:21;;;;;;;0.20;0.20;;;16.60;99.90;;;;;;4977223;28;20019;-78
2022/07/01 09:01:53;;;;;;;0.10;0.10;;;16.50;99.90;;;;;;4977701;28;20386;-75
2022/07/01 09:04:20;;;;;;;0.20;0.20;;;16.60;99.90;;;;;;4976947;28;20087;-77
2022/07/01 09:06:47;;;;;;;0.00;0.00;;;16.30;99.90;;;;;;4959586;28;20031;-77
2022/07/01 09:09:15;;;;;;;0.10;0.10;;;16.30;99.90;;;;;;4942116;29;20082;-77
2022/07/01 09:11:45;;;;;;;0.13;0.13;;;15.90;99.90;;;;;;4958613;28;20372;-77
2022/07/01 09:14:14;;;;;;;1.55;0.30;;;15.60;99.90;;;;;;4958845;29;20019;-77
2022/07/01 09:16:54;;;;;;;0.17;0.17;;;15.70;99.90;;;;;;4956841;28;20030;-77
2022/07/01 09:19:22;;;;;;;0.38;0.35;;;16.00;99.90;;;;;;4972850;28;20019;-77
2022/07/01 09:22:01;;;;;;;0.10;0.10;;;16.00;99.90;;;;;;4976923;28;20420;-75
2022/07/01 09:24:33;;;;;;;0.10;0.10;;;16.00;99.90;;;;;;4975594;28;20231;-75
2022/07/01 09:27:04;;;;;;;0.10;0.10;;;15.90;99.90;;;;;;4975081;28;20165;-76
2022/07/01 09:29:35;;;;;;;0.10;0.10;;;15.90;99.90;;;;;;4975034;28;20061;-76
2022/07/01 09:32:04;;;;;;;0.10;0.10;;;16.00;99.90;;;;;;5057187;23;20089;-75
2022/07/01 09:34:34;;;;;;;0.08;0.08;;;16.00;99.90;;;;;;4994431;28;20030;-74
2022/07/01 09:36:59;;;;;;;0.00;0.00;;;15.90;99.90;;;;;;4993006;28;20038;-75
2022/07/01 09:39:25;;;;;;;0.10;0.10;;;16.10;99.90;;;;;;4992723;28;20030;-74
2022/07/01 09:41:55;;;;;;;0.00;0.00;;;16.20;99.90;;;;;;4994296;28;20048;-75
2022/07/01 09:44:21;;;;;;;0.00;0.00;;;16.30;99.90;;;;;;4992515;28;20034;-75
2022/07/01 09:46:55;;;;;;;0.10;0.10;;;16.40;99.90;;;;;;4992674;28;20463;-75
2022/07/01 09:49:23;;;;;;;0.03;0.03;;;16.40;99.90;;;;;;4992414;28;20037;-75
2022/07/01 09:51:52;;;;;;;0.10;0.10;;;16.60;99.90;;;;;;4993828;28;20363;-75
2022/07/01 09:54:18;;;;;;;0.10;0.10;;;16.60;99.90;;;;;;4993716;28;20061;-75
2022/07/01 09:56:44;;;;;;;0.10;0.10;;;16.60;99.90;;;;;;4992779;28;20023;-75
2022/07/01 09:59:11;;;;;;;0.00;0.00;;;16.60;99.90;;;;;;4993583;28;20496;-75
2022/07/01 10:01:39;;;;;;;0.20;0.10;;;16.50;99.90;;;;;;4992423;28;20057;-75
2022/07/01 10:04:07;;;;;;;0.10;0.10;;;16.20;99.90;;;;;;4993097;28;20026;-74
2022/07/01 10:06:33;;;;;;;0.10;0.10;;;16.10;99.90;;;;;;4992466;28;20414;-74
2022/07/01 10:09:23;;;;;;;0.10;0.10;;;16.20;99.90;;;;;;4993145;28;20037;-75
2022/07/01 10:12:11;;;;;;;0.10;0.10;;;16.20;99.90;;;;;;4993639;28;20030;-76
2022/07/01 10:14:38;;;;;;;0.00;0.00;;;16.20;99.90;;;;;;4992312;28;20478;-75
2022/07/01 10:17:06;;;;;;;0.13;0.13;;;16.30;99.90;;;;;;4989514;28;20474;-75
2022/07/01 10:19:33;;;;;;;0.10;0.10;;;16.30;99.90;;;;;;4977869;28;20081;-75
2022/07/01 10:22:20;;;;;;;0.10;0.10;;;16.40;99.90;;;;;;4992190;28;20226;-75
2022/07/01 10:24:47;;;;;;;0.00;0.00;;;16.30;99.90;;;;;;4959112;28;20145;-74
2022/07/01 10:27:24;;;;;;;0.10;0.10;;;16.40;99.90;;;;;;4972694;28;20501;-75
2022/07/01 10:30:15;;;;;;;1.65;0.25;;;16.10;99.90;;;;;;4974544;28;20070;-75
2022/07/01 10:32:49;;;;;;;0.10;0.10;;;15.80;99.90;;;;;;4981868;28;20041;-75
2022/07/01 10:35:15;;;;;;;0.00;0.00;;;15.90;99.90;;;;;;4993657;28;20065;-75
2022/07/01 10:38:01;;;;;;;0.10;0.10;;;15.90;99.90;;;;;;4992183;28;20026;-75
2022/07/01 10:41:09;;;;;;;0.00;0.00;;;15.90;99.90;;;;;;4991129;28;20084;-75
2022/07/01 10:43:37;;;;;;;0.10;0.10;;;16.00;99.90;;;;;;4985171;28;20044;-75
2022/07/01 10:46:07;;;;;;;0.00;0.00;;;16.10;99.90;;;;;;4991390;28;20030;-75
2022/07/01 10:48:33;;;;;;;0.10;0.10;;;16.00;99.90;;;;;;4992842;28;20030;-74
2022/07/01 10:51:30;;;;;;;0.10;0.10;;;15.90;99.90;;;;;;4992747;28;20022;-76
2022/07/01 10:53:54;;;;;;;0.10;0.10;;;15.70;99.90;;;;;;4991184;28;20030;-76
2022/07/01 10:56:40;;;;;;;0.10;0.10;;;15.90;99.90;;;;;;4991528;28;20038;-76
2022/07/01 10:59:07;;;;;;;0.10;0.10;;;16.10;99.90;;;;;;4993199;28;20065;-76
2022/07/01 11:01:32;;;;;;;0.00;0.00;;;16.00;99.90;;;;;;4991356;28;20064;-75
2022/07/01 11:03:59;;;;;;;0.32;0.32;;;16.00;99.90;;;;;;4992759;28;20030;-75
2022/07/01 11:06:25;;;;;;;0.10;0.10;;;16.10;99.90;;;;;;4991471;28;20014;-76
2022/07/01 11:08:50;;;;;;;0.10;0.10;;;16.20;99.90;;;;;;4991205;28;20027;-75
2022/07/01 11:11:19;;;;;;;0.10;0.10;;;16.20;99.90;;;;;;4991262;28;20362;-76
2022/07/01 11:13:45;;;;;;;0.20;0.20;;;16.20;99.90;;;;;;4990697;28;20026;-75
2022/07/01 11:16:11;;;;;;;0.10;0.10;;;16.20;99.90;;;;;;4974580;28;20027;-75
2022/07/01 11:18:36;;;;;;;0.10;0.10;;;16.20;99.90;;;;;;4992561;28;20481;-76
2022/07/01 11:21:08;;;;;;;0.10;0.10;;;16.30;99.90;;;;;;4992448;28;20053;-75
2022/07/01 11:23:34;;;;;;;0.10;0.10;;;16.20;99.90;;;;;;4992700;28;20117;-75
2022/07/01 11:26:00;;;;;;;0.10;0.10;;;16.10;99.90;;;;;;4991321;28;20030;-76
2022/07/01 11:28:26;;;;;;;0.05;0.05;;;16.00;99.90;;;;;;4992405;28;20038;-75
2022/07/01 11:31:01;;;;;;;0.10;0.10;;;16.00;99.90;;;;;;4990797;28;20049;-75
2022/07/01 11:33:27;;;;;;;0.10;0.10;;;16.30;99.90;;;;;;4991280;28;20018;-75
2022/07/01 11:41:25;;;;;;;0.10;0.10;;;16.10;99.90;;;;;;4991208;28;20038;-76
2022/07/01 11:43:52;;;;;;;0.10;0.10;;;16.20;99.90;;;;;;4990362;28;20029;-76
2022/07/01 11:46:17;;;;;;;0.17;0.17;;;16.00;99.90;;;;;;4982402;28;20033;-78
2022/07/01 11:48:49;;;;;;;0.00;0.00;;;16.00;99.90;;;;;;4978579;28;20031;-76
2022/07/01 11:51:18;;;;;;;0.10;0.10;;;16.10;99.90;;;;;;4971227;28;20106;-76
2022/07/01 11:53:49;;;;;;;0.10;0.10;;;16.20;99.90;;;;;;4990493;28;20081;-76
2022/07/01 11:56:16;;;;;;;0.08;0.08;;;16.10;99.90;;;;;;4992011;28;20023;-76
2022/07/01 11:58:52;;;;;;;0.10;0.10;;;16.30;99.90;;;;;;4990750;28;20089;-76
2022/07/01 12:01:29;;;;;;;0.10;0.10;;;16.60;99.90;;;;;;4982329;28;20494;-75
2022/07/01 12:03:57;;;;;;;0.10;0.10;;;16.60;99.90;;;;;;4974953;28;20054;-75
2022/07/01 12:06:24;;;;;;;0.00;0.00;;;16.80;99.90;;;;;;4971411;28;20026;-75
2022/07/01 12:08:50;;;;;;;0.10;0.10;;;17.10;99.90;;;;;;4972512;28;20030;-75
2022/07/01 12:11:18;;;;;;;0.00;0.00;;;17.40;99.90;;;;;;4971395;28;20093;-75
2022/07/01 12:13:45;;;;;;;0.10;0.10;;;17.30;99.90;;;;;;4955532;28;20046;-75
2022/07/01 12:16:12;;;;;;;0.08;0.08;;;16.90;99.90;;;;;;4972783;28;20035;-75
2022/07/01 12:18:38;;;;;;;0.10;0.10;;;17.00;99.90;;;;;;4986322;28;20030;-75
2022/07/01 12:21:04;;;;;;;0.10;0.10;;;17.00;99.90;;;;;;4991922;28;20077;-76
2022/07/01 12:23:32;;;;;;;0.10;0.10;;;16.90;99.90;;;;;;4974528;28;20052;-75
2022/07/01 12:25:58;;;;;;;0.20;0.20;;;17.00;99.90;;;;;;4993486;28;20144;-75
2022/07/01 12:28:28;;;;;;;0.38;0.38;;;16.80;99.90;;;;;;4995320;28;20070;-76
2022/07/01 12:31:08;;;;;;;0.10;0.10;;;16.80;99.90;;;;;;4996370;28;20029;-76
2022/07/01 12:33:39;;;;;;;0.10;0.10;;;16.80;99.90;;;;;;4995635;28;20566;-76
2022/07/01 12:36:06;;;;;;;0.20;0.20;;;16.70;99.90;;;;;;4978019;28;20046;-75
2022/07/01 12:38:33;;;;;;;0.47;0.20;;;16.60;99.90;;;;;;4994090;28;20097;-75
2022/07/01 12:40:59;;;;;;;0.10;0.10;;;16.60;99.90;;;;;;4976736;28;20056;-75
2022/07/01 12:43:36;;;;;;;0.10;0.10;;;16.50;99.90;;;;;;4993626;28;20026;-75
2022/07/01 12:46:02;;;;;;;0.05;0.05;;;16.50;99.90;;;;;;4977972;28;20026;-76
2022/07/01 12:48:28;;;;;;;0.10;0.10;;;16.70;99.90;;;;;;4993842;28;20030;-75
2022/07/01 12:50:57;;;;;;;0.75;0.75;;;16.60;99.90;;;;;;4978232;28;20046;-75
2022/07/01 12:53:25;;;;;;;0.30;0.30;;;16.60;99.90;;;;;;4994916;28;20133;-75
2022/07/01 12:55:56;;;;;;;0.10;0.10;;;16.40;99.90;;;;;;4994993;28;20050;-75
2022/07/01 12:58:24;;;;;;;0.10;0.10;;;16.30;99.90;;;;;;4994716;28;20038;-75
2022/07/01 13:00:55;;;;;;;0.10;0.10;;;16.20;99.90;;;;;;4986137;28;20065;-75
2022/07/01 13:03:24;;;;;;;0.10;0.10;;;16.30;99.90;;;;;;4967992;28;20022;-75
2022/07/01 13:05:52;;;;;;;0.10;0.10;;;16.30;99.90;;;;;;4957918;28;20034;-75